Time;durP1;ratioP1;P1;durP2;ratioP2;P2;SDS_P1;SDS_P2;PMS_P1;PMS_P2;Temp;Humidity;BMP_temperature;BMP_pressure;BME280_temperature;BME280_humidity;BME280_pressure;Samples;Min_cycle;Max_cycle;Signal;HPM_P1;HPM_P2
2022/11/16 00:01:30;;;;;;;8.57;6.80;;;11.00;99.90;;;;;;4995567;28;20061;-76
2022/11/16 00:03:58;;;;;;;7.72;6.93;;;11.00;99.90;;;;;;4995102;28;20585;-76
2022/11/16 00:06:24;;;;;;;7.32;6.60;;;11.00;99.90;;;;;;4995467;28;20454;-76
2022/11/16 00:11:38;;;;;;;9.40;6.90;;;11.00;99.90;;;;;;4995185;28;20571;-77
2022/11/16 00:14:04;;;;;;;7.82;6.75;;;11.00;99.90;;;;;;4994578;28;20054;-76
2022/11/16 00:16:30;;;;;;;9.57;7.07;;;11.00;99.90;;;;;;4994440;28;20094;-76
2022/11/16 00:19:01;;;;;;;11.05;7.40;;;10.90;99.90;;;;;;4995055;28;20046;-75
2022/11/16 00:21:27;;;;;;;8.35;7.38;;;11.00;99.90;;;;;;4995010;28;20108;-76
2022/11/16 00:23:53;;;;;;;8.45;6.93;;;11.00;99.90;;;;;;4993745;28;20043;-76
2022/11/16 00:26:19;;;;;;;8.85;6.88;;;11.00;99.90;;;;;;4995219;28;20117;-76
2022/11/16 00:28:46;;;;;;;9.38;7.45;;;11.00;99.90;;;;;;4995552;28;20078;-76
2022/11/16 00:31:11;;;;;;;8.90;7.97;;;11.00;99.90;;;;;;4994224;28;20053;-76
2022/11/16 00:33:38;;;;;;;11.20;7.10;;;11.10;99.90;;;;;;4994881;28;20042;-76
2022/11/16 00:36:06;;;;;;;10.88;8.38;;;11.10;99.90;;;;;;4994689;28;20046;-76
2022/11/16 00:38:32;;;;;;;9.85;7.93;;;11.00;99.90;;;;;;4994741;28;20133;-76
2022/11/16 00:40:58;;;;;;;10.13;8.02;;;11.10;99.90;;;;;;4993447;28;20082;-75
2022/11/16 00:43:24;;;;;;;10.43;8.43;;;11.00;99.90;;;;;;4977624;28;20054;-75
2022/11/16 00:45:50;;;;;;;8.43;7.10;;;11.10;99.90;;;;;;4994942;28;20058;-75
2022/11/16 00:48:16;;;;;;;8.23;7.18;;;11.00;99.90;;;;;;4994469;28;20130;-75
2022/11/16 00:50:43;;;;;;;9.65;7.95;;;11.00;99.90;;;;;;4994486;28;20046;-75
2022/11/16 00:53:12;;;;;;;7.53;6.70;;;11.10;99.90;;;;;;4994532;28;20042;-75
2022/11/16 00:55:38;;;;;;;9.80;8.00;;;11.00;99.90;;;;;;4994812;28;20047;-75
2022/11/16 00:58:04;;;;;;;9.38;7.70;;;11.10;99.90;;;;;;4993218;28;20054;-75
2022/11/16 01:00:30;;;;;;;12.13;8.27;;;11.10;99.90;;;;;;4994621;28;20097;-76
2022/11/16 01:02:55;;;;;;;10.38;7.35;;;11.10;99.90;;;;;;4993891;28;20057;-76
2022/11/16 01:05:22;;;;;;;11.00;8.63;;;11.10;99.90;;;;;;4994056;28;20050;-76
2022/11/16 01:07:49;;;;;;;8.88;7.28;;;11.10;99.90;;;;;;4994252;28;20120;-76
2022/11/16 01:10:42;;;;;;;10.85;7.72;;;11.10;99.90;;;;;;5068931;27;21038;-76
2022/11/16 01:13:09;;;;;;;12.27;8.32;;;11.00;99.90;;;;;;5070103;28;20189;-76
2022/11/16 01:15:35;;;;;;;9.93;7.00;;;11.10;99.90;;;;;;5075590;28;20164;-76
2022/11/16 01:18:01;;;;;;;8.82;7.85;;;11.10;99.90;;;;;;5077624;28;20044;-76
2022/11/16 01:20:28;;;;;;;9.48;8.43;;;11.10;99.90;;;;;;5077374;28;20078;-76
2022/11/16 01:22:54;;;;;;;10.98;7.20;;;11.10;99.90;;;;;;5076020;28;20051;-76
2022/11/16 01:25:20;;;;;;;9.90;7.65;;;11.20;99.90;;;;;;5078118;28;20051;-76
2022/11/16 01:27:46;;;;;;;8.23;6.88;;;11.10;99.90;;;;;;5076094;28;20055;-76
2022/11/16 01:30:13;;;;;;;7.88;6.85;;;11.20;99.90;;;;;;5074558;28;20151;-76
2022/11/16 01:32:39;;;;;;;11.15;6.45;;;11.20;99.90;;;;;;5107577;27;20064;-76
2022/11/16 01:35:05;;;;;;;8.23;6.28;;;11.10;99.90;;;;;;5076362;28;20051;-76
2022/11/16 01:37:31;;;;;;;7.07;6.13;;;11.20;99.90;;;;;;5070985;28;20155;-76
2022/11/16 01:39:58;;;;;;;11.10;7.18;;;11.20;99.90;;;;;;5081034;28;20058;-75
2022/11/16 01:42:26;;;;;;;10.68;8.23;;;11.20;99.90;;;;;;5076026;28;20151;-75
2022/11/16 01:45:01;;;;;;;8.27;7.10;;;11.20;99.90;;;;;;5073742;28;20052;-75
2022/11/16 01:47:28;;;;;;;7.47;6.40;;;11.20;99.90;;;;;;5075897;28;20782;-74
2022/11/16 01:50:00;;;;;;;8.13;6.18;;;11.20;99.90;;;;;;5076386;28;20109;-74
2022/11/16 01:52:31;;;;;;;7.28;6.38;;;11.20;99.90;;;;;;5074193;28;20052;-74
2022/11/16 01:54:57;;;;;;;7.07;5.82;;;11.20;99.90;;;;;;5068483;28;20182;-74
2022/11/16 01:57:30;;;;;;;7.10;5.32;;;11.20;99.90;;;;;;5083761;28;20044;-74
2022/11/16 01:59:58;;;;;;;9.68;5.75;;;11.20;99.90;;;;;;5071275;28;20082;-74
2022/11/16 02:02:24;;;;;;;6.82;5.20;;;11.20;99.90;;;;;;5070707;28;20122;-74
2022/11/16 02:04:51;;;;;;;8.02;5.78;;;11.30;99.90;;;;;;5074941;28;20571;-75
2022/11/16 02:10:36;;;;;;;6.75;5.68;;;11.20;99.90;;;;;;5073794;28;20079;-75
2022/11/16 02:13:30;;;;;;;9.33;6.23;;;11.20;99.90;;;;;;5072326;28;20091;-75
2022/11/16 02:16:10;;;;;;;;;;;11.30;99.90;;;;;;5071777;28;20044;-75
2022/11/16 02:19:04;;;;;;;6.43;5.43;;;11.20;99.90;;;;;;5079634;28;19924;-74
2022/11/16 02:21:40;;;;;;;12.70;6.60;;;11.30;99.90;;;;;;5061466;28;20048;-74
2022/11/16 02:24:39;;;;;;;6.68;5.32;;;11.30;99.90;;;;;;5063097;28;20074;-74
2022/11/16 02:27:33;;;;;;;7.25;5.75;;;11.30;99.90;;;;;;5060737;28;20151;-74
2022/11/16 02:29:59;;;;;;;9.70;6.00;;;11.30;99.90;;;;;;5036669;28;20446;-73
2022/11/16 02:32:30;;;;;;;6.28;5.68;;;11.30;99.90;;;;;;5059543;28;20482;-73
2022/11/16 02:35:08;;;;;;;10.63;6.00;;;11.30;99.90;;;;;;5061072;28;20044;-73
2022/11/16 02:37:39;;;;;;;6.25;4.90;;;11.30;99.90;;;;;;5057829;28;20617;-73
2022/11/16 02:40:09;;;;;;;7.32;5.55;;;11.30;99.90;;;;;;5064072;28;20546;-72
2022/11/16 02:42:43;;;;;;;7.07;5.38;;;11.30;99.90;;;;;;5060347;28;20052;-73
2022/11/16 02:45:12;;;;;;;7.50;5.90;;;11.20;99.90;;;;;;5062465;28;20815;-73
2022/11/16 02:47:40;;;;;;;7.00;5.45;;;11.20;99.90;;;;;;5059277;28;20249;-73
2022/11/16 02:50:13;;;;;;;8.82;5.82;;;11.20;99.90;;;;;;5092022;27;20099;-73
2022/11/16 02:52:39;;;;;;;6.53;5.00;;;11.70;99.90;;;;;;5059019;28;20080;-73
2022/11/16 02:55:06;;;;;;;9.88;6.38;;;11.20;99.90;;;;;;5058093;28;20132;-73
2022/11/16 02:57:52;;;;;;;7.43;5.18;;;11.20;99.90;;;;;;5057602;28;20102;-73
2022/11/16 03:00:21;;;;;;;7.88;5.75;;;11.20;99.90;;;;;;5051220;28;20051;-73
2022/11/16 03:02:59;;;;;;;10.57;5.45;;;11.20;99.90;;;;;;5058877;28;20060;-73
2022/11/16 03:05:34;;;;;;;7.05;6.13;;;11.20;99.90;;;;;;5056922;28;20441;-73
2022/11/16 03:08:40;;;;;;;8.38;5.82;;;11.20;99.90;;;;;;5058695;28;20167;-73
2022/11/16 03:13:59;;;;;;;8.23;6.18;;;11.20;99.90;;;;;;5064610;28;20052;-73
2022/11/16 03:16:37;;;;;;;6.55;5.85;;;11.20;99.90;;;;;;5061155;28;20167;-74
2022/11/16 03:19:10;;;;;;;6.97;5.38;;;11.10;99.90;;;;;;5046499;28;20178;-73
2022/11/16 03:21:38;;;;;;;8.73;6.05;;;11.20;99.90;;;;;;5057587;28;20053;-73
2022/11/16 03:24:05;;;;;;;10.18;6.47;;;11.20;99.90;;;;;;5062690;28;20129;-73
2022/11/16 03:27:13;;;;;;;6.95;6.25;;;11.20;99.90;;;;;;5067327;28;20043;-74
2022/11/16 03:29:54;;;;;;;10.07;6.25;;;11.10;99.90;;;;;;4993848;28;20049;-74
2022/11/16 03:32:48;;;;;;;6.55;5.80;;;11.10;99.90;;;;;;4989713;28;20056;-74
2022/11/16 03:35:23;;;;;;;7.53;6.72;;;11.10;99.90;;;;;;5035989;28;20059;-74
2022/11/16 03:37:51;;;;;;;8.70;6.97;;;11.10;99.90;;;;;;5057641;28;20036;-73
2022/11/16 03:40:19;;;;;;;9.13;6.00;;;11.10;99.90;;;;;;5060817;28;20075;-73
2022/11/16 03:42:48;;;;;;;6.80;6.10;;;11.10;99.90;;;;;;5067592;28;20123;-73
2022/11/16 03:45:15;;;;;;;7.65;6.32;;;11.10;99.90;;;;;;5061352;28;20094;-73
2022/11/16 03:47:41;;;;;;;9.05;6.65;;;11.10;99.90;;;;;;5059292;28;20495;-73
2022/11/16 03:50:08;;;;;;;9.35;6.90;;;11.10;99.90;;;;;;5063953;28;20478;-73
2022/11/16 03:52:34;;;;;;;8.93;8.02;;;11.10;99.90;;;;;;5065753;28;20087;-72
2022/11/16 03:55:00;;;;;;;9.20;6.55;;;11.10;99.90;;;;;;5061893;28;20051;-73
2022/11/16 03:57:26;;;;;;;10.00;6.85;;;11.10;99.90;;;;;;5061917;28;20053;-72
2022/11/16 03:59:51;;;;;;;10.77;7.05;;;11.00;99.90;;;;;;5060104;28;20036;-72
2022/11/16 04:02:17;;;;;;;12.95;7.20;;;11.10;99.90;;;;;;5060460;28;20079;-72
2022/11/16 04:24:13;;;;;;;10.25;9.32;;;11.10;99.90;;;;;;5065825;28;20047;-72
2022/11/16 04:29:29;;;;;;;10.48;7.68;;;10.90;99.90;;;;;;5065758;28;19931;-72
2022/11/16 04:40:08;;;;;;;12.25;8.48;;;11.00;99.90;;;;;;5065705;28;20048;-73
2022/11/16 04:42:34;;;;;;;10.65;8.50;;;11.00;99.90;;;;;;5062789;28;20563;-73
2022/11/16 04:47:44;;;;;;;13.68;9.20;;;11.00;99.90;;;;;;5063503;28;20081;-73
2022/11/16 04:50:11;;;;;;;10.93;8.48;;;11.00;99.90;;;;;;5059595;28;20131;-74
2022/11/16 04:52:36;;;;;;;10.82;8.68;;;11.00;99.90;;;;;;5059420;28;20236;-74
2022/11/16 04:55:02;;;;;;;10.75;9.65;;;11.00;99.90;;;;;;5060047;28;20052;-73
2022/11/16 04:57:28;;;;;;;11.50;9.40;;;11.00;99.90;;;;;;5054650;28;20119;-73
2022/11/16 04:59:54;;;;;;;10.98;8.80;;;11.00;99.90;;;;;;5063716;28;20085;-73
2022/11/16 05:02:19;;;;;;;11.82;9.60;;;10.90;99.90;;;;;;5066413;28;20051;-73
2022/11/16 05:04:45;;;;;;;13.73;9.77;;;10.90;99.90;;;;;;5058334;28;20080;-73
2022/11/16 05:07:13;;;;;;;12.57;10.05;;;11.00;99.90;;;;;;5059909;28;20048;-73
2022/11/16 05:09:41;;;;;;;11.18;9.13;;;11.00;99.90;;;;;;5060916;28;20056;-73
2022/11/16 05:12:13;;;;;;;12.02;8.80;;;11.00;99.90;;;;;;5063605;28;20055;-73
2022/11/16 05:14:40;;;;;;;12.30;9.10;;;10.90;99.90;;;;;;5055966;28;20199;-73
2022/11/16 05:17:06;;;;;;;14.93;10.77;;;10.90;99.90;;;;;;5057933;28;20124;-73
2022/11/16 05:22:16;;;;;;;14.48;10.98;;;10.90;99.90;;;;;;5059974;28;20052;-73
2022/11/16 05:24:42;;;;;;;12.93;9.95;;;10.90;99.90;;;;;;5065855;28;20048;-72
2022/11/16 05:27:11;;;;;;;14.00;9.93;;;10.90;99.90;;;;;;5057595;28;20048;-72
2022/11/16 05:29:37;;;;;;;14.07;9.93;;;10.90;99.90;;;;;;5063534;28;20051;-72
2022/11/16 05:32:03;;;;;;;12.63;10.23;;;10.90;99.90;;;;;;5056682;28;20044;-72
2022/11/16 05:34:30;;;;;;;11.77;10.57;;;10.90;99.90;;;;;;5059096;28;20208;-72
2022/11/16 05:36:56;;;;;;;15.48;10.88;;;11.00;99.90;;;;;;5054623;28;20047;-72
2022/11/16 05:39:22;;;;;;;13.23;9.98;;;10.90;99.90;;;;;;5065092;28;20056;-73
2022/11/16 05:41:48;;;;;;;11.77;10.45;;;11.00;99.90;;;;;;5064230;28;20572;-73
2022/11/16 05:44:15;;;;;;;12.00;10.70;;;10.90;99.90;;;;;;5061057;28;20048;-73
2022/11/16 05:46:41;;;;;;;14.88;11.25;;;11.00;99.90;;;;;;5060899;28;20044;-73
2022/11/16 05:49:07;;;;;;;15.57;11.30;;;10.90;99.90;;;;;;5055579;28;20123;-73
2022/11/16 05:51:34;;;;;;;12.18;10.07;;;10.90;99.90;;;;;;5060661;28;20415;-73
2022/11/16 05:54:02;;;;;;;12.75;10.52;;;11.00;99.90;;;;;;5057690;28;20127;-73
2022/11/16 05:56:28;;;;;;;12.98;11.32;;;11.00;99.90;;;;;;5061674;28;20080;-73
2022/11/16 05:58:54;;;;;;;16.30;11.45;;;11.00;99.90;;;;;;5070367;28;20043;-73
2022/11/16 06:01:19;;;;;;;15.10;10.98;;;11.00;99.90;;;;;;5060407;28;20149;-73
2022/11/16 06:03:45;;;;;;;14.32;11.60;;;11.00;99.90;;;;;;5069123;28;20060;-73
2022/11/16 06:06:11;;;;;;;14.85;11.07;;;11.00;99.90;;;;;;5059313;28;20051;-73
2022/11/16 06:08:36;;;;;;;14.73;11.02;;;11.00;99.90;;;;;;5066069;28;20040;-73
2022/11/16 06:11:08;;;;;;;13.93;11.65;;;11.00;99.90;;;;;;5058845;28;20152;-74
2022/11/16 06:13:34;;;;;;;14.52;11.18;;;11.00;99.90;;;;;;5060077;28;20052;-74
2022/11/16 06:16:00;;;;;;;15.73;12.27;;;11.00;99.90;;;;;;5066532;28;20046;-72
2022/11/16 06:18:26;;;;;;;14.35;11.25;;;11.00;99.90;;;;;;5068199;28;20052;-73
2022/11/16 06:20:52;;;;;;;13.23;11.05;;;11.00;99.90;;;;;;5076724;28;20055;-72
2022/11/16 06:23:18;;;;;;;16.20;11.63;;;11.00;99.90;;;;;;5067650;28;20048;-72
2022/11/16 06:25:44;;;;;;;13.30;10.35;;;11.10;99.90;;;;;;5056732;28;20048;-72
2022/11/16 06:28:10;;;;;;;15.38;10.30;;;11.10;99.90;;;;;;5068192;28;20048;-72
2022/11/16 06:30:37;;;;;;;11.40;9.20;;;11.00;99.90;;;;;;5062292;28;20826;-72
2022/11/16 06:33:03;;;;;;;10.30;9.25;;;11.10;99.90;;;;;;5069792;28;20048;-72
2022/11/16 06:35:29;;;;;;;13.13;10.52;;;11.00;99.90;;;;;;5062020;28;20059;-71
2022/11/16 06:37:56;;;;;;;11.65;9.75;;;11.10;99.90;;;;;;5059801;28;20080;-71
2022/11/16 06:40:21;;;;;;;12.60;9.68;;;11.10;99.90;;;;;;5059657;28;20079;-72
2022/11/16 06:42:47;;;;;;;11.73;10.38;;;11.10;99.90;;;;;;5060456;28;20650;-72
2022/11/16 06:45:13;;;;;;;12.20;9.30;;;11.00;99.90;;;;;;5063133;28;20504;-72
2022/11/16 06:47:38;;;;;;;14.27;10.32;;;11.10;99.90;;;;;;5064813;28;20228;-72
2022/11/16 06:50:04;;;;;;;12.40;9.18;;;11.00;99.90;;;;;;5078354;28;20365;-72
2022/11/16 06:52:30;;;;;;;12.05;10.65;;;11.10;99.90;;;;;;5064476;28;20160;-72
2022/11/16 06:54:56;;;;;;;12.00;9.88;;;11.10;99.90;;;;;;5054895;28;20342;-71
2022/11/16 06:57:22;;;;;;;12.68;9.98;;;11.10;99.90;;;;;;5067605;28;20043;-72
2022/11/16 06:59:48;;;;;;;11.00;9.65;;;11.10;99.90;;;;;;5071126;28;20067;-72
2022/11/16 07:02:15;;;;;;;10.80;9.00;;;11.00;99.90;;;;;;5063116;28;20159;-72
2022/11/16 07:04:40;;;;;;;12.00;9.77;;;11.10;99.90;;;;;;5066219;28;20880;-72
2022/11/16 07:07:06;;;;;;;11.93;9.27;;;11.10;99.90;;;;;;5060211;28;20046;-71
2022/11/16 07:09:32;;;;;;;9.38;8.32;;;11.10;99.90;;;;;;5056311;28;20066;-71
2022/11/16 07:11:57;;;;;;;9.70;8.30;;;11.10;99.90;;;;;;5064028;28;20407;-72
2022/11/16 07:14:23;;;;;;;10.63;8.75;;;11.20;99.90;;;;;;5058377;28;20048;-72
2022/11/16 07:16:49;;;;;;;12.98;9.82;;;11.10;99.90;;;;;;5055925;28;20072;-72
2022/11/16 07:19:14;;;;;;;11.00;8.70;;;11.10;99.90;;;;;;5067462;28;20134;-72
2022/11/16 07:21:40;;;;;;;10.82;8.10;;;11.10;99.90;;;;;;5057312;28;20056;-72
2022/11/16 07:24:06;;;;;;;11.25;8.70;;;11.10;99.90;;;;;;5045892;28;20040;-72
2022/11/16 07:26:33;;;;;;;10.07;7.72;;;11.20;99.90;;;;;;5059730;28;20105;-72
2022/11/16 07:28:59;;;;;;;12.32;9.32;;;11.20;99.90;;;;;;5066293;28;20048;-72
2022/11/16 07:31:25;;;;;;;9.10;8.23;;;11.20;99.90;;;;;;5064080;28;20236;-72
2022/11/16 07:33:51;;;;;;;11.27;8.10;;;11.20;99.90;;;;;;5061921;28;20598;-72
2022/11/16 07:36:17;;;;;;;9.80;8.05;;;11.20;99.90;;;;;;5066773;28;20082;-71
2022/11/16 07:38:43;;;;;;;9.15;8.10;;;11.10;99.90;;;;;;5058961;28;20052;-72
2022/11/16 07:41:14;;;;;;;10.63;7.80;;;11.10;99.90;;;;;;5066721;28;20598;-72
2022/11/16 07:43:40;;;;;;;9.38;8.23;;;11.10;99.90;;;;;;5065872;28;20051;-72
2022/11/16 07:46:09;;;;;;;9.75;8.45;;;11.10;99.90;;;;;;5063542;28;21047;-72
2022/11/16 07:48:35;;;;;;;11.45;8.50;;;11.10;99.90;;;;;;5057115;28;20209;-72
2022/11/16 07:51:02;;;;;;;7.88;6.85;;;11.10;99.90;;;;;;5064207;28;20270;-73
2022/11/16 07:53:29;;;;;;;10.20;7.72;;;11.20;99.90;;;;;;5059940;28;20055;-72
2022/11/16 07:55:55;;;;;;;10.95;8.43;;;11.20;99.90;;;;;;5063511;28;20186;-72
2022/11/16 07:58:21;;;;;;;9.07;8.10;;;11.20;99.90;;;;;;5060289;28;20048;-72
2022/11/16 08:00:46;;;;;;;9.75;7.80;;;11.20;99.90;;;;;;5061737;28;20113;-73
2022/11/16 08:03:12;;;;;;;10.98;8.40;;;11.10;99.90;;;;;;5067453;28;20044;-73
2022/11/16 08:05:38;;;;;;;9.05;7.88;;;11.10;99.90;;;;;;5062926;28;20376;-73
2022/11/16 08:08:04;;;;;;;10.38;7.60;;;11.10;99.90;;;;;;5074754;28;20582;-72
2022/11/16 08:10:30;;;;;;;10.82;8.15;;;11.10;99.90;;;;;;5067281;28;20063;-72
2022/11/16 08:12:56;;;;;;;9.82;7.60;;;11.20;99.90;;;;;;5063839;28;20048;-71
2022/11/16 08:15:22;;;;;;;9.05;8.07;;;11.20;99.90;;;;;;5065782;28;20044;-72
2022/11/16 08:17:48;;;;;;;9.80;8.55;;;11.20;99.90;;;;;;5063449;28;20159;-72
2022/11/16 08:20:14;;;;;;;10.32;8.05;;;11.10;99.90;;;;;;5070746;28;20035;-72
2022/11/16 08:22:40;;;;;;;8.88;8.00;;;11.10;99.90;;;;;;5059236;28;20129;-72
2022/11/16 08:25:06;;;;;;;9.95;7.32;;;11.10;99.90;;;;;;5070937;28;20162;-72
2022/11/16 08:27:32;;;;;;;9.15;7.70;;;11.10;99.90;;;;;;5060460;28;20134;-72
2022/11/16 08:29:58;;;;;;;8.38;6.97;;;11.10;99.90;;;;;;5063090;28;20497;-72
2022/11/16 08:32:23;;;;;;;9.75;8.70;;;11.10;99.90;;;;;;5062457;28;20044;-73
2022/11/16 08:34:49;;;;;;;10.40;9.23;;;11.10;99.90;;;;;;5062939;28;20116;-73
2022/11/16 08:37:15;;;;;;;9.60;8.07;;;11.10;99.90;;;;;;5063653;28;20048;-73
2022/11/16 08:39:41;;;;;;;9.27;7.78;;;11.10;99.90;;;;;;5067392;28;20346;-72
2022/11/16 08:42:06;;;;;;;12.25;8.60;;;11.10;99.90;;;;;;5101457;27;20090;-73
2022/11/16 08:44:32;;;;;;;10.45;8.25;;;11.10;99.90;;;;;;5064621;28;20566;-73
2022/11/16 08:46:58;;;;;;;10.23;7.38;;;11.10;99.90;;;;;;5065574;28;20764;-73
2022/11/16 08:49:23;;;;;;;10.00;7.80;;;11.10;99.90;;;;;;5070010;28;20096;-73
2022/11/16 08:51:49;;;;;;;8.25;6.70;;;11.10;99.90;;;;;;5065121;28;20124;-73
2022/11/16 08:54:15;;;;;;;8.60;6.97;;;11.20;99.90;;;;;;5064019;28;20053;-73
2022/11/16 08:56:40;;;;;;;8.35;7.55;;;11.20;99.90;;;;;;5063105;28;20553;-73
2022/11/16 08:59:06;;;;;;;8.48;7.57;;;11.10;99.90;;;;;;5067728;28;20044;-73
2022/11/16 09:01:32;;;;;;;7.72;6.50;;;11.20;99.90;;;;;;5063237;28;20058;-73
2022/11/16 09:03:59;;;;;;;9.32;6.72;;;11.20;99.90;;;;;;5090477;27;20507;-73
2022/11/16 09:06:26;;;;;;;8.50;7.00;;;11.20;99.90;;;;;;5060142;28;20048;-74
2022/11/16 09:08:52;;;;;;;8.40;7.10;;;11.20;99.90;;;;;;5069141;28;20770;-72
2022/11/16 09:11:21;;;;;;;10.88;7.10;;;11.20;99.90;;;;;;5053391;28;20094;-73
2022/11/16 09:13:50;;;;;;;8.90;6.55;;;11.20;99.90;;;;;;5059805;28;20361;-73
2022/11/16 09:16:16;;;;;;;7.88;7.07;;;11.30;99.90;;;;;;5065988;28;20059;-73
2022/11/16 09:18:47;;;;;;;8.88;6.85;;;11.30;99.90;;;;;;5057809;28;20052;-76
2022/11/16 09:21:18;;;;;;;8.32;7.32;;;11.30;99.90;;;;;;5058037;28;20044;-83
2022/11/16 09:23:44;;;;;;;7.32;6.53;;;11.30;99.90;;;;;;5060316;28;20048;-82
2022/11/16 09:26:09;;;;;;;8.45;7.25;;;11.30;99.90;;;;;;5071449;28;20048;-75
2022/11/16 09:28:35;;;;;;;9.07;7.47;;;11.40;99.90;;;;;;5059450;28;20053;-73
2022/11/16 09:31:03;;;;;;;10.13;8.05;;;11.40;99.90;;;;;;5065397;28;20094;-73
2022/11/16 09:33:30;;;;;;;12.13;7.78;;;11.40;99.90;;;;;;5060701;28;20059;-73
2022/11/16 09:36:00;;;;;;;10.70;7.60;;;11.40;99.90;;;;;;5068898;28;20086;-74
2022/11/16 09:38:26;;;;;;;10.70;8.57;;;11.50;99.90;;;;;;5055865;28;20056;-73
2022/11/16 09:40:52;;;;;;;11.57;9.93;;;11.60;99.90;;;;;;5063391;28;20048;-73
2022/11/16 09:43:36;;;;;;;12.13;9.07;;;11.50;99.90;;;;;;5048971;28;20924;-74
2022/11/16 09:46:20;;;;;;;9.80;8.82;;;11.60;99.90;;;;;;5058198;28;20071;-74
2022/11/16 09:48:48;;;;;;;12.70;10.10;;;11.60;99.90;;;;;;5064324;28;20416;-74
2022/11/16 09:51:15;;;;;;;12.65;10.50;;;11.80;99.90;;;;;;5060148;28;20048;-73
2022/11/16 09:53:48;;;;;;;13.13;9.45;;;11.80;99.90;;;;;;5064273;28;20044;-74
2022/11/16 09:56:25;;;;;;;12.05;10.95;;;11.90;99.90;;;;;;5058453;28;20084;-73
2022/11/16 09:59:18;;;;;;;14.50;10.18;;;11.90;99.90;;;;;;5058842;28;20118;-75
2022/11/16 10:01:58;;;;;;;13.68;11.13;;;12.00;99.90;;;;;;5060475;28;20052;-74
2022/11/16 10:04:46;;;;;;;12.30;9.05;;;12.00;99.90;;;;;;5062685;28;20518;-74
2022/11/16 10:07:24;;;;;;;13.73;9.52;;;12.00;99.90;;;;;;5061247;28;20060;-75
2022/11/16 10:09:50;;;;;;;15.02;11.07;;;12.10;99.90;;;;;;5063085;28;20060;-75
2022/11/16 10:12:26;;;;;;;14.20;9.60;;;12.00;99.90;;;;;;5061165;28;20071;-75
2022/11/16 10:15:30;;;;;;;11.73;10.10;;;12.10;99.90;;;;;;5065268;28;20415;-75
2022/11/16 10:18:11;;;;;;;;;;;12.20;99.90;;;;;;5070844;28;20040;-75
2022/11/16 10:21:02;;;;;;;13.25;9.73;;;12.20;99.90;;;;;;5061007;28;20411;-75
2022/11/16 10:23:34;;;;;;;11.32;10.00;;;12.30;99.90;;;;;;5057218;28;20048;-75
2022/11/16 10:26:26;;;;;;;11.65;9.50;;;12.30;99.90;;;;;;5060511;28;20106;-75
2022/11/16 10:29:18;;;;;;;13.05;9.73;;;12.30;99.90;;;;;;5027919;28;20110;-75
2022/11/16 10:32:02;;;;;;;11.55;9.65;;;12.30;99.90;;;;;;5061875;28;20079;-75
2022/11/16 10:34:42;;;;;;;13.43;10.18;;;12.30;99.90;;;;;;5063842;28;20046;-75
2022/11/16 10:37:11;;;;;;;9.93;8.88;;;12.30;99.90;;;;;;5060790;28;20075;-75
2022/11/16 10:39:39;;;;;;;17.83;9.95;;;12.20;99.90;;;;;;5063075;28;20862;-75
2022/11/16 10:42:22;;;;;;;10.35;8.98;;;12.30;99.90;;;;;;5059620;28;20048;-75
2022/11/16 10:44:57;;;;;;;10.88;8.40;;;12.30;99.90;;;;;;5062741;28;20055;-75
2022/11/16 10:47:43;;;;;;;11.82;8.88;;;12.40;99.90;;;;;;5065252;28;20048;-72
2022/11/16 10:50:35;;;;;;;12.77;9.13;;;12.40;99.90;;;;;;5059876;28;20136;-76
2022/11/16 10:53:01;;;;;;;12.77;7.95;;;12.40;99.90;;;;;;5064705;28;20105;-75
2022/11/16 10:55:29;;;;;;;11.05;8.57;;;12.50;99.90;;;;;;5095992;27;20056;-75
2022/11/16 10:57:58;;;;;;;13.07;9.60;;;12.60;99.90;;;;;;5059567;28;20044;-75
2022/11/16 11:00:46;;;;;;;13.18;8.43;;;12.70;99.90;;;;;;5063978;28;20036;-75
2022/11/16 11:03:12;;;;;;;14.75;8.05;;;12.70;99.90;;;;;;5057569;28;20064;-76
2022/11/16 11:05:54;;;;;;;12.57;7.90;;;12.80;99.90;;;;;;5061996;28;20510;-75
2022/11/16 11:08:26;;;;;;;10.50;7.75;;;12.80;99.90;;;;;;5068237;28;20040;-75
2022/11/16 11:14:22;;;;;;;12.05;8.25;;;12.90;99.90;;;;;;5058238;28;20063;-75
2022/11/16 11:16:52;;;;;;;14.38;8.55;;;12.90;99.90;;;;;;5032615;28;20106;-75
2022/11/16 11:19:28;;;;;;;10.65;7.75;;;12.90;99.90;;;;;;5059318;28;20052;-76
2022/11/16 11:22:00;;;;;;;9.65;7.00;;;12.90;99.90;;;;;;5057985;28;20056;-75
2022/11/16 11:24:27;;;;;;;10.52;7.15;;;12.90;99.90;;;;;;5058236;28;20190;-76
2022/11/16 11:26:59;;;;;;;9.32;7.00;;;13.00;99.90;;;;;;5067577;28;20738;-76
2022/11/16 11:29:27;;;;;;;12.50;7.07;;;13.00;99.90;;;;;;5056777;28;20056;-76
2022/11/16 11:32:19;;;;;;;12.30;7.25;;;13.00;99.90;;;;;;5069719;28;20091;-76
2022/11/16 11:34:49;;;;;;;9.45;6.90;;;12.90;99.90;;;;;;5064046;28;20095;-76
2022/11/16 11:37:29;;;;;;;9.85;6.75;;;12.90;99.90;;;;;;5054200;28;20384;-76
2022/11/16 11:40:21;;;;;;;10.05;5.90;;;12.80;99.90;;;;;;5068392;28;20036;-76
2022/11/16 11:43:02;;;;;;;12.60;7.03;;;12.80;99.90;;;;;;5048838;28;20083;-76
2022/11/16 11:45:57;;;;;;;10.88;5.50;;;12.80;99.90;;;;;;5055402;28;20063;-77
2022/11/16 11:48:53;;;;;;;9.55;4.63;;;12.80;99.90;;;;;;5056467;28;20051;-77
2022/11/16 11:51:24;;;;;;;7.40;4.90;;;12.70;99.90;;;;;;5064442;28;20106;-77
2022/11/16 11:53:56;;;;;;;6.50;3.60;;;12.70;99.90;;;;;;5068094;28;20052;-77
2022/11/16 11:56:23;;;;;;;7.60;3.85;;;12.70;99.90;;;;;;5094977;27;20041;-77
2022/11/16 11:58:50;;;;;;;6.72;3.90;;;12.70;99.90;;;;;;5071009;28;20040;-77
2022/11/16 12:01:35;;;;;;;5.47;3.88;;;12.80;99.90;;;;;;5064413;28;20159;-77
2022/11/16 12:04:25;;;;;;;5.18;3.83;;;12.90;99.90;;;;;;5064941;28;20056;-77
2022/11/16 12:06:55;;;;;;;5.72;4.65;;;12.90;99.90;;;;;;5056374;28;20355;-77
2022/11/16 12:09:50;;;;;;;10.73;3.58;;;13.00;99.90;;;;;;5066513;28;20086;-77
2022/11/16 12:12:22;;;;;;;5.75;4.35;;;13.00;99.90;;;;;;5065810;28;20051;-77
2022/11/16 12:14:57;;;;;;;4.55;3.58;;;13.10;99.90;;;;;;5067579;28;20044;-76
2022/11/16 12:18:33;;;;;;;4.40;3.33;;;13.20;99.90;;;;;;5062491;28;20210;-77
2022/11/16 12:21:08;;;;;;;7.53;3.17;;;13.20;99.90;;;;;;4988834;28;20702;-77
2022/11/16 12:24:06;;;;;;;3.33;3.03;;;13.40;99.90;;;;;;4988134;28;20058;-77
2022/11/16 12:26:52;;;;;;;4.20;2.53;;;13.60;99.90;;;;;;5036625;28;20509;-77
2022/11/16 12:29:46;;;;;;;2.45;2.25;;;13.70;99.90;;;;;;5071388;28;20048;-77
2022/11/16 12:32:20;;;;;;;4.72;2.47;;;13.70;99.90;;;;;;5034508;28;20201;-77
2022/11/16 12:35:12;;;;;;;5.57;2.80;;;13.70;99.90;;;;;;5028760;28;20106;-77
2022/11/16 12:37:59;;;;;;;5.63;2.75;;;13.60;99.90;;;;;;5071114;28;20060;-77
2022/11/16 12:40:33;;;;;;;4.13;2.28;;;13.50;99.90;;;;;;5060768;28;20097;-77
2022/11/16 12:43:28;;;;;;;4.20;2.92;;;13.60;99.90;;;;;;5055343;28;20164;-77
2022/11/16 12:46:19;;;;;;;6.10;2.40;;;13.60;99.90;;;;;;5064370;28;20052;-77
2022/11/16 12:49:04;;;;;;;3.28;2.13;;;13.60;99.90;;;;;;5048628;28;20766;-77
2022/11/16 12:51:29;;;;;;;4.22;2.58;;;13.60;99.90;;;;;;5061910;28;20419;-77
2022/11/16 12:54:04;;;;;;;5.88;2.78;;;13.50;99.90;;;;;;5077045;28;20537;-77
2022/11/16 12:56:32;;;;;;;3.95;2.28;;;13.50;99.90;;;;;;5057410;28;20080;-77
2022/11/16 12:59:24;;;;;;;5.28;2.55;;;13.50;99.90;;;;;;5068298;28;20051;-77
2022/11/16 13:02:10;;;;;;;4.53;2.35;;;13.60;99.90;;;;;;5072666;28;20058;-78
2022/11/16 13:04:44;;;;;;;4.00;2.08;;;13.60;99.90;;;;;;5072264;28;20072;-78
2022/11/16 13:07:20;;;;;;;5.63;2.88;;;13.60;99.90;;;;;;5066280;28;20086;-78
2022/11/16 13:09:50;;;;;;;3.80;2.38;;;13.50;99.90;;;;;;5061540;28;20064;-77
2022/11/16 13:12:21;;;;;;;5.00;2.30;;;13.50;99.90;;;;;;5058937;28;20182;-77
2022/11/16 13:14:49;;;;;;;6.00;3.00;;;13.40;99.90;;;;;;5068909;28;20110;-77
2022/11/16 13:17:40;;;;;;;7.60;2.65;;;13.40;99.90;;;;;;5058130;28;20124;-78
2022/11/16 13:20:24;;;;;;;4.25;2.45;;;13.40;99.90;;;;;;5057342;28;20558;-77
2022/11/16 13:23:01;;;;;;;6.22;2.95;;;13.20;99.90;;;;;;5069967;28;20395;-78
2022/11/16 13:26:00;;;;;;;9.10;2.83;;;13.30;99.90;;;;;;5057232;28;20506;-78
2022/11/16 13:28:34;;;;;;;4.82;2.40;;;13.00;99.90;;;;;;5072493;28;20053;-77
2022/11/16 13:31:18;;;;;;;5.10;3.80;;;12.90;99.90;;;;;;5069775;28;20052;-78
2022/11/16 13:33:48;;;;;;;5.00;2.40;;;12.80;99.90;;;;;;5059812;28;20090;-78
2022/11/16 13:36:38;;;;;;;2.85;1.80;;;12.70;99.90;;;;;;5060461;28;20623;-78
2022/11/16 13:39:05;;;;;;;4.07;2.20;;;12.70;99.90;;;;;;5059697;28;20056;-77
2022/11/16 13:41:35;;;;;;;3.97;1.92;;;12.60;99.90;;;;;;5059743;28;20094;-77
2022/11/16 13:44:18;;;;;;;3.45;1.95;;;12.70;99.90;;;;;;5059333;28;20048;-78
2022/11/16 13:46:46;;;;;;;5.07;2.05;;;12.60;99.90;;;;;;5058729;28;20044;-78
2022/11/16 13:49:22;;;;;;;6.30;2.72;;;12.60;99.90;;;;;;5059247;28;20063;-78
2022/11/16 13:52:02;;;;;;;9.68;3.55;;;12.60;99.90;;;;;;5044149;28;20091;-78